createdAt,value
2017-02-19T00:00:42.227Z,2.06
2017-02-19T00:01:53.645Z,2.09
2017-02-19T00:03:05.099Z,2.12
2017-02-19T00:04:16.572Z,2.08
2017-02-19T00:05:28.031Z,2.16
2017-02-19T00:06:39.471Z,2.04
2017-02-19T00:07:51.137Z,2.04
2017-02-19T00:09:02.562Z,2.16
2017-02-19T00:10:14.011Z,2.05
2017-02-19T00:11:25.452Z,2.11
2017-02-19T00:12:36.891Z,2.09
2017-02-19T00:13:48.317Z,2.15
2017-02-19T00:14:59.801Z,2.05
2017-02-19T00:16:11.241Z,2.04
2017-02-19T00:17:22.718Z,2.04
2017-02-19T00:18:34.161Z,2.08
2017-02-19T00:19:45.594Z,2.06
2017-02-19T00:20:57.044Z,2.12
2017-02-19T00:22:08.491Z,2.02
2017-02-19T00:23:19.910Z,2.08
2017-02-19T00:24:31.326Z,2.09
2017-02-19T00:25:42.762Z,1.98
2017-02-19T00:26:54.207Z,2.02
2017-02-19T00:28:05.632Z,1.97
2017-02-19T00:29:17.059Z,2.02
2017-02-19T00:30:28.503Z,2.05
2017-02-19T00:31:39.999Z,1.89
2017-02-19T00:32:51.647Z,1.89
2017-02-19T00:34:03.091Z,1.9
2017-02-19T00:35:14.721Z,1.94
2017-02-19T00:36:26.164Z,1.92
2017-02-19T00:37:37.608Z,1.79
2017-02-19T00:38:49.053Z,1.83
2017-02-19T00:40:00.486Z,1.79
2017-02-19T00:41:11.921Z,1.92
2017-02-19T00:42:23.410Z,1.83
2017-02-19T00:43:34.841Z,1.69
2017-02-19T00:44:46.299Z,1.75
2017-02-19T00:45:57.953Z,1.66
2017-02-19T00:47:09.388Z,1.74
2017-02-19T00:48:20.820Z,1.78
2017-02-19T00:49:32.267Z,1.65
2017-02-19T00:50:43.908Z,1.72
2017-02-19T00:51:55.338Z,1.71
2017-02-19T00:53:06.821Z,1.78
2017-02-19T00:54:18.249Z,1.72
2017-02-19T00:55:29.668Z,1.68
2017-02-19T00:56:41.285Z,1.66
2017-02-19T00:57:52.721Z,1.64
2017-02-19T00:59:04.148Z,1.65
2017-02-19T01:00:15.574Z,1.71
2017-02-19T01:01:27.201Z,1.69
2017-02-19T01:02:38.639Z,1.68
2017-02-19T01:03:50.077Z,1.65
2017-02-19T01:05:01.520Z,1.71
2017-02-19T01:06:13.187Z,1.61
2017-02-19T01:07:24.828Z,1.65
2017-02-19T01:08:36.269Z,1.76
2017-02-19T01:09:47.775Z,1.65
2017-02-19T01:10:59.210Z,1.65
2017-02-19T01:12:10.651Z,1.57
2017-02-19T01:13:22.072Z,1.71
2017-02-19T01:14:33.511Z,1.61
2017-02-19T01:15:44.938Z,1.57
2017-02-19T01:16:56.389Z,1.6
2017-02-19T01:18:07.834Z,1.68
2017-02-19T01:19:19.542Z,1.54
2017-02-19T01:20:30.973Z,1.64
2017-02-19T01:21:42.410Z,1.61
2017-02-19T01:22:54.048Z,1.58
2017-02-19T01:24:05.489Z,1.53
2017-02-19T01:25:16.934Z,1.5
2017-02-19T01:26:28.356Z,1.57
2017-02-19T01:27:39.793Z,1.46
2017-02-19T01:28:51.225Z,1.48
2017-02-19T01:30:02.719Z,1.48
2017-02-19T01:31:14.153Z,1.53
2017-02-19T01:32:25.774Z,1.5
2017-02-19T01:33:37.225Z,1.53
2017-02-19T01:34:48.706Z,1.48
2017-02-19T01:36:00.141Z,1.47
2017-02-19T01:37:11.570Z,1.5
2017-02-19T01:38:23.008Z,1.5
2017-02-19T01:39:34.474Z,1.53
2017-02-19T01:40:45.951Z,1.54
2017-02-19T01:41:57.379Z,1.47
2017-02-19T01:43:08.806Z,1.47
2017-02-19T01:44:20.247Z,1.46
2017-02-19T01:45:31.687Z,1.44
2017-02-19T01:46:43.115Z,1.4
2017-02-19T01:47:54.550Z,1.42
2017-02-19T01:49:05.975Z,1.38
2017-02-19T01:50:17.596Z,1.3
2017-02-19T01:51:29.021Z,1.32
2017-02-19T01:52:40.463Z,1.4
2017-02-19T01:53:51.889Z,1.32
2017-02-19T01:55:03.307Z,1.36
2017-02-19T01:56:14.732Z,1.42
2017-02-19T01:57:26.159Z,1.29
2017-02-19T01:58:37.841Z,1.35
2017-02-19T01:59:49.267Z,1.38
2017-02-19T02:01:00.702Z,1.3
2017-02-19T02:02:12.140Z,1.46
2017-02-19T02:03:23.576Z,1.36
2017-02-19T02:04:35.014Z,1.42
2017-02-19T02:05:46.445Z,1.38
2017-02-19T02:06:57.863Z,1.39
2017-02-19T02:08:09.538Z,1.33
2017-02-19T02:09:20.975Z,1.32
2017-02-19T02:10:32.853Z,1.39
2017-02-19T02:11:44.514Z,1.32
2017-02-19T02:12:56.159Z,1.39
2017-02-19T02:14:07.621Z,1.3
2017-02-19T02:15:19.066Z,1.3
2017-02-19T02:16:30.523Z,1.32
2017-02-19T02:17:41.954Z,1.35
2017-02-19T02:18:53.446Z,1.33
2017-02-19T02:20:04.891Z,1.28
2017-02-19T02:21:16.320Z,1.33
2017-02-19T02:22:27.760Z,1.39
2017-02-19T02:23:39.388Z,1.29
2017-02-19T02:24:51.012Z,1.29
2017-02-19T02:26:02.652Z,1.42
2017-02-19T02:27:14.087Z,1.39
2017-02-19T02:28:25.502Z,1.39
2017-02-19T02:29:37.226Z,1.44
2017-02-19T02:30:48.664Z,1.44
2017-02-19T02:32:00.100Z,1.46
2017-02-19T02:33:11.748Z,1.42
2017-02-19T02:34:23.179Z,1.42
2017-02-19T02:35:34.647Z,1.5
2017-02-19T02:36:46.133Z,1.42
2017-02-19T02:37:57.583Z,1.44
2017-02-19T02:39:09.216Z,1.48
2017-02-19T02:40:20.633Z,1.5
2017-02-19T02:41:32.125Z,1.48
2017-02-19T02:42:43.752Z,1.53
2017-02-19T02:43:55.188Z,1.53
2017-02-19T02:45:06.622Z,1.69
2017-02-19T02:46:18.060Z,1.65
2017-02-19T02:47:29.495Z,1.6
2017-02-19T02:48:40.940Z,1.66
2017-02-19T02:49:52.585Z,1.66
2017-02-19T02:51:04.087Z,1.66
2017-02-19T02:52:15.517Z,1.66
2017-02-19T02:53:26.941Z,1.58
2017-02-19T02:54:38.376Z,1.53
2017-02-19T02:55:49.817Z,1.51
2017-02-19T02:57:01.446Z,1.53
2017-02-19T02:58:12.899Z,1.57
2017-02-19T02:59:24.345Z,1.61
2017-02-19T03:00:35.773Z,1.68
2017-02-19T03:01:47.264Z,1.64
2017-02-19T03:02:58.712Z,1.65
2017-02-19T03:04:10.334Z,1.65
2017-02-19T03:05:21.980Z,1.58
2017-02-19T03:06:33.394Z,1.64
2017-02-19T03:07:45.037Z,1.61
2017-02-19T03:08:56.872Z,1.69
2017-02-19T03:10:08.317Z,1.66
2017-02-19T03:11:19.958Z,1.72
2017-02-19T03:12:31.455Z,1.72
2017-02-19T03:13:42.889Z,1.68
2017-02-19T03:14:54.521Z,1.76
2017-02-19T03:16:05.965Z,1.89
2017-02-19T03:17:17.397Z,1.89
2017-02-19T03:18:28.830Z,1.89
2017-02-19T03:19:40.253Z,1.93
2017-02-19T03:20:51.700Z,1.87
2017-02-19T03:22:03.163Z,2.05
2017-02-19T03:23:14.591Z,1.93
2017-02-19T03:24:26.088Z,1.94
2017-02-19T03:25:37.713Z,2.02
2017-02-19T03:26:49.160Z,2.02
2017-02-19T03:28:00.594Z,2.11
2017-02-19T03:29:12.033Z,2.11
2017-02-19T03:30:23.865Z,2.09
2017-02-19T03:31:35.300Z,2.16
2017-02-19T03:32:46.734Z,2.18
2017-02-19T03:33:58.225Z,2.22
2017-02-19T03:35:09.695Z,2.26
2017-02-19T03:36:21.134Z,2.31
2017-02-19T03:37:32.592Z,2.41
2017-02-19T03:38:44.026Z,2.49
2017-02-19T03:39:55.466Z,2.42
2017-02-19T03:41:06.908Z,2.47
2017-02-19T03:42:18.341Z,2.49
2017-02-19T03:43:29.790Z,2.48
2017-02-19T03:44:41.263Z,2.58
2017-02-19T03:45:52.693Z,2.6
2017-02-19T03:47:04.117Z,2.54
2017-02-19T03:48:15.752Z,2.6
2017-02-19T03:49:27.193Z,2.55
2017-02-19T03:50:38.631Z,2.58
2017-02-19T03:51:50.073Z,2.58
2017-02-19T03:53:01.512Z,2.65
2017-02-19T03:54:12.955Z,2.76
2017-02-19T03:55:24.450Z,2.59
2017-02-19T03:56:35.885Z,2.72
2017-02-19T03:57:47.321Z,2.67
2017-02-19T03:58:58.785Z,2.7
2017-02-19T04:00:10.224Z,2.83
2017-02-19T04:01:21.717Z,2.8
2017-02-19T04:02:33.146Z,2.81
2017-02-19T04:03:44.586Z,2.83
2017-02-19T04:04:56.028Z,2.81
2017-02-19T04:06:07.489Z,2.8
2017-02-19T04:07:18.923Z,2.84
2017-02-19T04:08:30.360Z,2.85
2017-02-19T04:09:42.185Z,2.83
2017-02-19T04:10:53.628Z,2.8
2017-02-19T04:12:05.119Z,2.85
2017-02-19T04:13:16.770Z,2.78
2017-02-19T04:14:28.204Z,2.8
2017-02-19T04:15:39.644Z,2.84
2017-02-19T04:16:51.060Z,2.88
2017-02-19T04:18:02.503Z,2.88
2017-02-19T04:19:13.953Z,3.01
2017-02-19T04:20:25.366Z,2.88
2017-02-19T04:21:36.995Z,2.84
2017-02-19T04:22:48.477Z,2.91
2017-02-19T04:23:59.903Z,2.87
2017-02-19T04:25:11.361Z,2.93
2017-02-19T04:26:22.786Z,2.95
2017-02-19T04:27:34.222Z,3.03
2017-02-19T04:28:45.658Z,2.88
2017-02-19T04:29:57.089Z,2.95
2017-02-19T04:31:08.523Z,2.91
2017-02-19T04:32:20.157Z,2.91
2017-02-19T04:33:31.649Z,2.83
2017-02-19T04:34:43.276Z,2.9
2017-02-19T04:35:54.732Z,2.9
2017-02-19T04:37:06.173Z,3.02
2017-02-19T04:38:17.605Z,3.03
2017-02-19T04:39:29.065Z,2.91
2017-02-19T04:40:40.686Z,2.96
2017-02-19T04:41:52.131Z,2.87
2017-02-19T04:43:03.561Z,2.87
2017-02-19T04:44:15.048Z,2.91
2017-02-19T04:45:26.485Z,2.91
2017-02-19T04:46:37.923Z,2.91
2017-02-19T04:47:49.363Z,2.83
2017-02-19T04:49:00.806Z,2.88
2017-02-19T04:50:12.277Z,2.87
2017-02-19T04:51:23.705Z,2.81
2017-02-19T04:52:35.135Z,2.8
2017-02-19T04:53:46.559Z,2.81
2017-02-19T04:54:57.989Z,2.81
2017-02-19T04:56:09.631Z,2.67
2017-02-19T04:57:21.251Z,2.69
2017-02-19T04:58:32.889Z,2.77
2017-02-19T04:59:44.320Z,2.76
2017-02-19T05:00:55.796Z,2.73
2017-02-19T05:02:07.224Z,2.8
2017-02-19T05:03:18.650Z,2.77
2017-02-19T05:04:30.275Z,2.69
2017-02-19T05:05:41.730Z,2.76
2017-02-19T05:06:53.183Z,2.67
2017-02-19T05:08:04.599Z,2.78
2017-02-19T05:09:16.026Z,2.73
2017-02-19T05:10:27.478Z,2.63
2017-02-19T05:11:38.949Z,2.66
2017-02-19T05:12:50.631Z,2.6
2017-02-19T05:14:02.069Z,2.76
2017-02-19T05:15:13.721Z,2.65
2017-02-19T05:16:25.169Z,2.73
2017-02-19T05:17:36.797Z,2.6
2017-02-19T05:18:48.236Z,2.78
2017-02-19T05:19:59.679Z,2.66
2017-02-19T05:21:11.139Z,2.65
2017-02-19T05:22:22.639Z,2.7
2017-02-19T05:23:34.083Z,2.63
2017-02-19T05:24:45.539Z,2.67
2017-02-19T05:25:56.986Z,2.76
2017-02-19T05:27:08.613Z,2.72
2017-02-19T05:28:20.059Z,2.72
2017-02-19T05:29:31.517Z,2.72
2017-02-19T05:30:42.942Z,2.73
2017-02-19T05:31:54.373Z,2.8
2017-02-19T05:33:05.854Z,2.77
2017-02-19T05:34:17.298Z,2.8
2017-02-19T05:35:28.722Z,2.81
2017-02-19T05:36:40.150Z,2.84
2017-02-19T05:37:51.580Z,2.81
2017-02-19T05:39:03.211Z,2.9
2017-02-19T05:40:14.635Z,2.87
2017-02-19T05:41:26.069Z,2.91
2017-02-19T05:42:37.693Z,2.91
2017-02-19T05:43:49.174Z,2.93
2017-02-19T05:45:00.620Z,2.91
2017-02-19T05:46:12.028Z,2.88
2017-02-19T05:47:23.462Z,2.91
2017-02-19T05:48:34.895Z,2.88
2017-02-19T05:49:46.531Z,2.81
2017-02-19T05:50:57.954Z,2.81
2017-02-19T05:52:09.400Z,2.8
2017-02-19T05:53:20.831Z,2.84
2017-02-19T05:54:32.331Z,2.78
2017-02-19T05:55:43.763Z,2.84
2017-02-19T05:56:55.200Z,2.87
2017-02-19T05:58:06.631Z,2.78
2017-02-19T05:59:18.058Z,2.83
2017-02-19T06:00:29.481Z,2.81
2017-02-19T06:01:40.913Z,2.84
2017-02-19T06:02:52.355Z,2.78
2017-02-19T06:04:03.977Z,2.81
2017-02-19T06:05:15.505Z,2.78
2017-02-19T06:06:26.945Z,2.77
2017-02-19T06:07:38.396Z,2.87
2017-02-19T06:08:49.828Z,2.87
2017-02-19T06:10:01.285Z,2.9
2017-02-19T06:11:13.150Z,2.9
2017-02-19T06:12:24.588Z,2.98
2017-02-19T06:13:36.023Z,3.05
2017-02-19T06:14:47.455Z,2.98
2017-02-19T06:15:59.139Z,3.05
2017-02-19T06:17:10.584Z,3.01
2017-02-19T06:18:22.208Z,3.11
2017-02-19T06:19:33.842Z,3.11
2017-02-19T06:20:45.474Z,3.19
2017-02-19T06:21:56.934Z,3.14
2017-02-19T06:23:08.357Z,3.11
2017-02-19T06:24:19.777Z,3.19
2017-02-19T06:25:31.412Z,3.16
2017-02-19T06:26:42.848Z,3.2
2017-02-19T06:27:54.340Z,3.24
2017-02-19T06:29:05.769Z,3.23
2017-02-19T06:30:17.194Z,3.26
2017-02-19T06:31:28.625Z,3.3
2017-02-19T06:32:40.073Z,3.3
2017-02-19T06:33:51.509Z,3.4
2017-02-19T06:35:02.938Z,3.42
2017-02-19T06:36:14.377Z,3.27
2017-02-19T06:37:25.861Z,3.27
2017-02-19T06:38:37.308Z,3.42
2017-02-19T06:39:48.753Z,3.4
2017-02-19T06:41:00.194Z,3.4
2017-02-19T06:42:11.636Z,3.34
2017-02-19T06:43:23.097Z,3.24
2017-02-19T06:44:34.519Z,3.42
2017-02-19T06:45:45.951Z,3.4
2017-02-19T06:46:57.793Z,3.32
2017-02-19T06:48:09.276Z,3.39
2017-02-19T06:49:20.735Z,3.4
2017-02-19T06:50:32.162Z,3.45
2017-02-19T06:51:43.603Z,3.54
2017-02-19T06:52:55.432Z,3.53
2017-02-19T06:54:06.879Z,3.51
2017-02-19T06:55:18.514Z,3.53
2017-02-19T06:56:29.934Z,3.48
2017-02-19T06:57:41.381Z,3.49
2017-02-19T06:58:53.051Z,3.6
2017-02-19T07:00:04.478Z,3.46
2017-02-19T07:01:15.942Z,3.6
2017-02-19T07:02:27.376Z,3.56
2017-02-19T07:03:38.813Z,3.67
2017-02-19T07:04:50.259Z,3.51
2017-02-19T07:06:01.893Z,3.63
2017-02-19T07:07:13.328Z,3.6
2017-02-19T07:08:24.780Z,3.6
2017-02-19T07:09:36.207Z,3.61
2017-02-19T07:10:47.693Z,3.57
2017-02-19T07:11:59.541Z,3.6
2017-02-19T07:13:11.173Z,3.6
2017-02-19T07:14:22.828Z,3.56
2017-02-19T07:15:34.276Z,3.63
2017-02-19T07:16:45.753Z,3.57
2017-02-19T07:17:57.184Z,3.56
2017-02-19T07:19:08.617Z,3.67
2017-02-19T07:20:20.093Z,3.58
2017-02-19T07:21:31.535Z,3.6
2017-02-19T07:22:42.974Z,3.56
2017-02-19T07:23:54.406Z,3.61
2017-02-19T07:25:06.046Z,3.63
2017-02-19T07:26:17.506Z,3.66
2017-02-19T07:27:28.955Z,3.74
2017-02-19T07:28:40.397Z,3.67
2017-02-19T07:29:51.833Z,3.74
2017-02-19T07:31:03.322Z,3.81
2017-02-19T07:32:14.733Z,3.76
2017-02-19T07:33:26.169Z,3.75
2017-02-19T07:34:37.610Z,3.82
2017-02-19T07:35:49.065Z,3.82
2017-02-19T07:37:00.491Z,3.75
2017-02-19T07:38:11.921Z,3.93
2017-02-19T07:39:23.358Z,3.79
2017-02-19T07:40:34.792Z,3.86
2017-02-19T07:41:46.283Z,3.89
2017-02-19T07:42:57.722Z,3.96
2017-02-19T07:44:09.150Z,3.94
2017-02-19T07:45:20.582Z,4.02
2017-02-19T07:46:32.011Z,4.04
2017-02-19T07:47:43.740Z,4.08
2017-02-19T07:48:55.172Z,4.11
2017-02-19T07:50:06.609Z,4.11
2017-02-19T07:51:18.229Z,4.15
2017-02-19T07:52:29.851Z,4.15
2017-02-19T07:53:41.489Z,4.21
2017-02-19T07:54:52.918Z,4.32
2017-02-19T07:56:04.356Z,4.26
2017-02-19T07:57:15.795Z,4.33
2017-02-19T07:58:27.510Z,4.36
2017-02-19T07:59:38.965Z,4.39
2017-02-19T08:00:50.424Z,4.4
2017-02-19T08:02:01.876Z,4.39
2017-02-19T08:03:13.315Z,4.42
2017-02-19T08:04:24.761Z,4.42
2017-02-19T08:05:36.249Z,4.4
2017-02-19T08:06:47.685Z,4.5
2017-02-19T08:07:59.132Z,4.47
2017-02-19T08:09:10.610Z,4.6
2017-02-19T08:10:22.040Z,4.47
2017-02-19T08:11:33.681Z,4.54
2017-02-19T08:12:45.339Z,4.57
2017-02-19T08:13:56.781Z,4.54
2017-02-19T08:15:08.221Z,4.57
2017-02-19T08:16:19.647Z,4.54
2017-02-19T08:17:31.114Z,4.6
2017-02-19T08:18:42.546Z,4.58
2017-02-19T08:19:54.030Z,4.56
2017-02-19T08:21:05.491Z,4.6
2017-02-19T08:22:17.124Z,4.57
2017-02-19T08:23:28.758Z,4.6
2017-02-19T08:24:40.196Z,4.53
2017-02-19T08:25:51.846Z,4.64
2017-02-19T08:27:03.287Z,4.56
2017-02-19T08:28:14.737Z,4.58
2017-02-19T08:29:26.175Z,4.64
2017-02-19T08:30:37.880Z,4.6
2017-02-19T08:31:49.330Z,4.64
2017-02-19T08:33:00.760Z,4.65
2017-02-19T08:34:12.191Z,4.64
2017-02-19T08:35:23.843Z,4.64
2017-02-19T08:36:35.290Z,4.66
2017-02-19T08:37:46.720Z,4.72
2017-02-19T08:38:58.375Z,4.79
2017-02-19T08:40:10.013Z,4.84
2017-02-19T08:41:21.440Z,4.78
2017-02-19T08:42:33.149Z,4.84
2017-02-19T08:43:44.580Z,4.87
2017-02-19T08:44:56.038Z,4.88
2017-02-19T08:46:07.483Z,4.92
2017-02-19T08:47:18.921Z,4.92
2017-02-19T08:48:30.356Z,4.94
2017-02-19T08:49:41.798Z,4.92
2017-02-19T08:50:53.459Z,4.85
2017-02-19T08:52:04.967Z,4.92
2017-02-19T08:53:16.392Z,4.98
2017-02-19T08:54:27.873Z,4.98
2017-02-19T08:55:39.512Z,5.03
2017-02-19T08:56:50.941Z,5
2017-02-19T08:58:02.399Z,4.98
2017-02-19T08:59:13.847Z,4.98
2017-02-19T09:00:25.291Z,5.1
2017-02-19T09:01:36.716Z,5.13
2017-02-19T09:02:48.212Z,5.12
2017-02-19T09:03:59.648Z,5.06
2017-02-19T09:05:11.071Z,5.02
2017-02-19T09:06:22.508Z,5.2
2017-02-19T09:07:33.970Z,5.08
2017-02-19T09:08:45.431Z,5.13
2017-02-19T09:09:56.880Z,5.15
2017-02-19T09:11:08.306Z,5.21
2017-02-19T09:12:19.733Z,5.12
2017-02-19T09:13:31.212Z,5.16
2017-02-19T09:14:42.649Z,5.13
2017-02-19T09:15:54.106Z,5.23
2017-02-19T09:17:05.535Z,5.2
2017-02-19T09:18:16.957Z,5.21
2017-02-19T09:19:28.428Z,5.31
2017-02-19T09:20:39.909Z,5.34
2017-02-19T09:21:51.540Z,5.34
2017-02-19T09:23:02.977Z,5.34
2017-02-19T09:24:14.609Z,5.36
2017-02-19T09:25:26.243Z,5.36
2017-02-19T09:26:37.680Z,5.39
2017-02-19T09:27:49.122Z,5.42
2017-02-19T09:29:00.560Z,5.49
2017-02-19T09:30:12.049Z,5.46
2017-02-19T09:31:23.470Z,5.44
2017-02-19T09:32:34.903Z,5.48
2017-02-19T09:33:46.333Z,5.55
2017-02-19T09:34:57.772Z,5.54
2017-02-19T09:36:09.608Z,5.55
2017-02-19T09:37:21.046Z,5.59
2017-02-19T09:38:32.494Z,5.6
2017-02-19T09:39:43.915Z,5.64
2017-02-19T09:40:55.402Z,5.66
2017-02-19T09:42:06.830Z,5.69
2017-02-19T09:43:18.293Z,5.72
2017-02-19T09:44:29.729Z,5.67
2017-02-19T09:45:41.387Z,5.73
2017-02-19T09:46:52.839Z,5.75
2017-02-19T09:48:04.305Z,5.73
2017-02-19T09:49:15.746Z,5.81
2017-02-19T09:50:27.178Z,5.8
2017-02-19T09:51:38.867Z,5.8
2017-02-19T09:52:50.327Z,5.82
2017-02-19T09:54:01.957Z,5.85
2017-02-19T09:55:13.394Z,5.96
2017-02-19T09:56:24.830Z,5.89
2017-02-19T09:57:36.481Z,5.96
2017-02-19T09:58:48.136Z,6
2017-02-19T09:59:59.581Z,6.05
2017-02-19T10:01:11.006Z,6.07
2017-02-19T10:02:22.481Z,6.2
2017-02-19T10:03:34.127Z,5.99
2017-02-19T10:04:45.584Z,6.15
2017-02-19T10:05:57.227Z,6.17
2017-02-19T10:07:08.868Z,6.18
2017-02-19T10:08:20.350Z,6.2
2017-02-19T10:09:31.806Z,6.21
2017-02-19T10:10:43.246Z,6.24
2017-02-19T10:11:54.694Z,6.24
2017-02-19T10:13:06.156Z,6.24
2017-02-19T10:14:17.658Z,6.25
2017-02-19T10:15:29.297Z,6.24
2017-02-19T10:16:40.744Z,6.14
2017-02-19T10:17:52.178Z,6.17
2017-02-19T10:19:03.629Z,6.31
2017-02-19T10:20:15.067Z,6.25
2017-02-19T10:21:26.521Z,6.34
2017-02-19T10:22:38.160Z,6.33
2017-02-19T10:23:49.658Z,6.4
2017-02-19T10:25:01.316Z,6.37
2017-02-19T10:26:12.743Z,6.44
2017-02-19T10:27:24.173Z,6.43
2017-02-19T10:28:35.801Z,6.51
2017-02-19T10:29:47.253Z,6.49
2017-02-19T10:30:58.694Z,6.49
2017-02-19T10:32:10.150Z,6.51
2017-02-19T10:33:21.588Z,6.55
2017-02-19T10:34:33.072Z,6.55
2017-02-19T10:35:44.496Z,6.55
2017-02-19T10:36:55.925Z,6.51
2017-02-19T10:38:07.381Z,6.57
2017-02-19T10:39:19.238Z,6.62
2017-02-19T10:40:30.693Z,6.46
2017-02-19T10:41:42.123Z,6.55
2017-02-19T10:42:53.783Z,6.6
2017-02-19T10:44:05.245Z,6.6
2017-02-19T10:45:16.742Z,6.54
2017-02-19T10:46:28.189Z,6.62
2017-02-19T10:47:39.634Z,6.55
2017-02-19T10:48:51.083Z,6.55
2017-02-19T10:50:02.544Z,6.6
2017-02-19T10:51:14.014Z,6.54
2017-02-19T10:52:25.637Z,6.64
2017-02-19T10:53:37.083Z,6.57
2017-02-19T10:54:48.526Z,6.67
2017-02-19T10:55:59.968Z,6.55
2017-02-19T10:57:11.866Z,6.51
2017-02-19T10:58:23.315Z,6.55
2017-02-19T10:59:34.753Z,6.57
2017-02-19T11:00:46.209Z,6.61
2017-02-19T11:01:57.849Z,6.54
2017-02-19T11:03:09.304Z,6.64
2017-02-19T11:04:20.926Z,6.6
2017-02-19T11:05:32.362Z,6.65
2017-02-19T11:06:44.033Z,6.64
2017-02-19T11:07:55.464Z,6.7
2017-02-19T11:09:07.115Z,6.61
2017-02-19T11:10:18.547Z,6.64
2017-02-19T11:11:29.989Z,6.65
2017-02-19T11:12:41.633Z,6.55
2017-02-19T11:13:53.094Z,6.67
2017-02-19T11:15:04.523Z,6.64
2017-02-19T11:16:15.982Z,6.6
2017-02-19T11:17:27.461Z,6.7
2017-02-19T11:18:38.913Z,6.65
2017-02-19T11:19:50.543Z,6.64
2017-02-19T11:21:02.605Z,6.6
2017-02-19T11:22:14.047Z,6.67
2017-02-19T11:23:25.473Z,6.64
2017-02-19T11:24:36.909Z,6.62
2017-02-19T11:25:48.341Z,6.57
2017-02-19T11:26:59.779Z,6.6
2017-02-19T11:28:11.259Z,6.54
2017-02-19T11:29:22.716Z,6.49
2017-02-19T11:30:34.147Z,6.49
2017-02-19T11:31:45.592Z,6.46
2017-02-19T11:32:57.036Z,6.52
2017-02-19T11:34:08.492Z,6.46
2017-02-19T11:35:19.926Z,6.39
2017-02-19T11:36:31.367Z,6.37
2017-02-19T11:37:42.809Z,6.43
2017-02-19T11:38:54.265Z,6.4
2017-02-19T11:40:05.720Z,6.43
2017-02-19T11:41:17.342Z,6.34
2017-02-19T11:42:28.779Z,6.34
2017-02-19T11:43:40.249Z,6.34
2017-02-19T11:44:51.718Z,6.39
2017-02-19T11:46:03.368Z,6.25
2017-02-19T11:47:14.811Z,6.25
2017-02-19T11:48:26.265Z,6.26
2017-02-19T11:49:37.730Z,6.17
2017-02-19T11:50:49.163Z,6.2
2017-02-19T11:52:00.600Z,6.21
2017-02-19T11:53:12.025Z,6.28
2017-02-19T11:54:23.459Z,6.31
2017-02-19T11:55:34.947Z,6.17
2017-02-19T11:56:46.405Z,6.24
2017-02-19T11:57:57.868Z,6.2
2017-02-19T11:59:09.322Z,6.2
2017-02-19T12:00:20.760Z,6.24
2017-02-19T12:01:32.209Z,6.17
2017-02-19T12:02:43.639Z,6.25
2017-02-19T12:03:55.085Z,6.24
2017-02-19T12:05:06.553Z,6.18
2017-02-19T12:06:18.253Z,6.15
2017-02-19T12:07:29.912Z,6.21
2017-02-19T12:08:41.355Z,6.25
2017-02-19T12:09:52.794Z,6.2
2017-02-19T12:11:35.759Z,6.26
2017-02-19T12:12:47.223Z,6.24
2017-02-19T12:13:58.883Z,6.25
2017-02-19T12:15:10.726Z,6.26
2017-02-19T12:16:22.210Z,6.26
2017-02-19T12:17:33.666Z,6.25
2017-02-19T12:18:45.101Z,6.25
2017-02-19T12:19:56.548Z,6.25
2017-02-19T12:21:08.002Z,6.29
2017-02-19T12:22:19.431Z,6.26
2017-02-19T12:23:30.884Z,6.15
2017-02-19T12:24:42.328Z,6.1
2017-02-19T12:25:53.759Z,6.09
2017-02-19T12:27:05.450Z,6.14
2017-02-19T12:28:16.888Z,6.17
2017-02-19T12:29:28.533Z,6.05
2017-02-19T12:30:40.069Z,6.05
2017-02-19T12:31:51.499Z,6.07
2017-02-19T12:33:02.940Z,6.02
2017-02-19T12:34:14.565Z,6.03
2017-02-19T12:35:26.014Z,6.14
2017-02-19T12:36:37.437Z,6.09
2017-02-19T12:37:49.144Z,6.15
2017-02-19T12:39:00.588Z,6.06
2017-02-19T12:40:12.010Z,6.17
2017-02-19T12:41:23.445Z,6.06
2017-02-19T12:42:34.876Z,6.07
2017-02-19T12:43:46.517Z,5.92
2017-02-19T12:44:57.971Z,6.02
2017-02-19T12:46:09.425Z,5.98
2017-02-19T12:47:21.071Z,5.95
2017-02-19T12:48:32.941Z,5.99
2017-02-19T12:49:44.569Z,5.95
2017-02-19T12:50:56.003Z,5.92
2017-02-19T12:52:07.834Z,5.92
2017-02-19T12:53:19.285Z,5.92
2017-02-19T12:54:30.779Z,5.95
2017-02-19T12:55:42.219Z,5.92
2017-02-19T12:56:53.657Z,6
2017-02-19T12:58:05.088Z,5.89
2017-02-19T12:59:16.536Z,5.98
2017-02-19T13:00:28.163Z,5.96
2017-02-19T13:01:39.611Z,5.92
2017-02-19T13:02:51.051Z,6.03
2017-02-19T13:04:02.553Z,5.95
2017-02-19T13:05:14.026Z,5.95
2017-02-19T13:06:25.670Z,5.95
2017-02-19T13:07:37.110Z,6.05
2017-02-19T13:08:48.730Z,6.02
2017-02-19T13:10:00.227Z,6
2017-02-19T13:11:11.702Z,5.95
2017-02-19T13:12:23.131Z,5.98
2017-02-19T13:13:34.576Z,5.98
2017-02-19T13:14:46.081Z,6.05
2017-02-19T13:15:57.515Z,6.06
2017-02-19T13:17:08.950Z,6.06
2017-02-19T13:18:20.411Z,6.06
2017-02-19T13:19:32.066Z,5.96
2017-02-19T13:20:43.699Z,6
2017-02-19T13:21:55.137Z,6
2017-02-19T13:23:06.581Z,5.99
2017-02-19T13:24:18.005Z,6
2017-02-19T13:25:29.522Z,5.96
2017-02-19T13:26:40.964Z,6.07
2017-02-19T13:27:52.395Z,6.07
2017-02-19T13:29:03.847Z,6.1
2017-02-19T13:30:15.500Z,6
2017-02-19T13:31:27.018Z,6
2017-02-19T13:32:38.467Z,5.99
2017-02-19T13:33:49.910Z,6.07
2017-02-19T13:35:01.348Z,6.02
2017-02-19T13:36:12.773Z,6.06
2017-02-19T13:37:24.426Z,6.03
2017-02-19T13:38:35.863Z,6.05
2017-02-19T13:39:47.316Z,6.03
2017-02-19T13:40:58.751Z,5.96
2017-02-19T13:42:10.273Z,6.09
2017-02-19T13:43:21.906Z,6.09
2017-02-19T13:44:33.353Z,6.05
2017-02-19T13:45:44.782Z,6.07
2017-02-19T13:46:56.212Z,6.13
2017-02-19T13:48:08.104Z,6.17
2017-02-19T13:49:19.539Z,6.14
2017-02-19T13:50:31.181Z,6.13
2017-02-19T13:51:42.610Z,6.17
2017-02-19T13:52:54.100Z,6.14
2017-02-19T13:54:05.529Z,6.21
2017-02-19T13:55:16.971Z,6.14
2017-02-19T13:56:28.405Z,6.15
2017-02-19T13:57:39.845Z,6.17
2017-02-19T13:58:51.287Z,6.1
2017-02-19T14:00:02.744Z,6.18
2017-02-19T14:01:14.167Z,6.15
2017-02-19T14:02:25.624Z,6.15
2017-02-19T14:03:37.316Z,6.13
2017-02-19T14:04:48.964Z,6.15
2017-02-19T14:06:00.416Z,6.14
2017-02-19T14:07:11.857Z,6.18
2017-02-19T14:08:23.313Z,6.2
2017-02-19T14:09:34.752Z,6.24
2017-02-19T14:10:46.184Z,6.25
2017-02-19T14:11:57.617Z,6.25
2017-02-19T14:13:09.057Z,6.28
2017-02-19T14:14:20.541Z,6.2
2017-02-19T14:15:31.980Z,6.25
2017-02-19T14:16:43.426Z,6.25
2017-02-19T14:17:54.863Z,6.24
2017-02-19T14:19:06.320Z,6.28
2017-02-19T14:20:17.788Z,6.26
2017-02-19T14:21:29.221Z,6.29
2017-02-19T14:22:40.674Z,6.17
2017-02-19T14:23:52.132Z,6.21
2017-02-19T14:25:03.780Z,6.24
2017-02-19T14:26:15.263Z,6.26
2017-02-19T14:27:26.720Z,6.24
2017-02-19T14:28:38.382Z,6.18
2017-02-19T14:29:49.820Z,6.2
2017-02-19T14:31:01.259Z,6.26
2017-02-19T14:32:12.694Z,6.24
2017-02-19T14:33:24.134Z,6.31
2017-02-19T14:34:35.575Z,6.17
2017-02-19T14:35:47.069Z,6.28
2017-02-19T14:36:58.534Z,6.15
2017-02-19T14:38:09.984Z,6.21
2017-02-19T14:39:21.443Z,6.24
2017-02-19T14:40:32.895Z,6.24
2017-02-19T14:41:44.345Z,6.18
2017-02-19T14:42:55.788Z,6.26
2017-02-19T14:44:07.452Z,6.18
2017-02-19T14:45:18.896Z,6.24
2017-02-19T14:46:30.597Z,6.24
2017-02-19T14:47:42.041Z,6.21
2017-02-19T14:48:53.475Z,6.24
2017-02-19T14:50:04.953Z,6.21
2017-02-19T14:51:16.423Z,6.2
2017-02-19T14:52:27.859Z,6.26
2017-02-19T14:53:39.284Z,6.25
2017-02-19T14:54:50.714Z,6.31
2017-02-19T14:56:02.173Z,6.31
2017-02-19T14:57:13.649Z,6.18
2017-02-19T14:58:25.067Z,6.2
2017-02-19T14:59:36.502Z,6.25
2017-02-19T15:00:48.140Z,6.36
2017-02-19T15:01:59.578Z,6.28
2017-02-19T15:03:11.074Z,6.36
2017-02-19T15:04:22.754Z,6.29
2017-02-19T15:05:34.191Z,6.34
2017-02-19T15:06:45.636Z,6.29
2017-02-19T15:07:57.075Z,6.33
2017-02-19T15:09:08.522Z,6.34
2017-02-19T15:10:19.955Z,6.34
2017-02-19T15:11:31.407Z,6.37
2017-02-19T15:12:42.857Z,6.34
2017-02-19T15:13:54.354Z,6.31
2017-02-19T15:15:05.782Z,6.36
2017-02-19T15:16:17.424Z,6.33
2017-02-19T15:17:28.865Z,6.36
2017-02-19T15:18:40.322Z,6.34
2017-02-19T15:19:51.970Z,6.37
2017-02-19T15:21:03.406Z,6.37
2017-02-19T15:22:14.844Z,6.31
2017-02-19T15:23:26.299Z,6.28
2017-02-19T15:24:37.770Z,6.29
2017-02-19T15:25:49.193Z,6.31
2017-02-19T15:27:00.648Z,6.25
2017-02-19T15:28:12.094Z,6.28
2017-02-19T15:29:23.521Z,6.26
2017-02-19T15:30:34.986Z,6.31
2017-02-19T15:31:46.432Z,6.33
2017-02-19T15:32:58.273Z,6.28
2017-02-19T15:34:09.697Z,6.36
2017-02-19T15:35:21.395Z,6.31
2017-02-19T15:36:32.851Z,6.36
2017-02-19T15:37:44.315Z,6.33
2017-02-19T15:38:55.961Z,6.36
2017-02-19T15:40:07.405Z,6.26
2017-02-19T15:41:18.869Z,6.33
2017-02-19T15:42:30.311Z,6.29
2017-02-19T15:43:41.751Z,6.39
2017-02-19T15:44:53.198Z,6.33
2017-02-19T15:46:04.676Z,6.29
2017-02-19T15:47:16.126Z,6.29
2017-02-19T15:48:27.571Z,6.37
2017-02-19T15:49:39.228Z,6.37
2017-02-19T15:50:50.696Z,6.31
2017-02-19T15:52:02.129Z,6.36
2017-02-19T15:53:13.574Z,6.37
2017-02-19T15:54:25.083Z,6.36
2017-02-19T15:55:36.517Z,6.43
2017-02-19T15:56:48.165Z,6.4